Time;durP1;ratioP1;P1;durP2;ratioP2;P2;SDS_P1;SDS_P2;PMS_P1;PMS_P2;Temp;Humidity;BMP_temperature;BMP_pressure;BME280_temperature;BME280_humidity;BME280_pressure;Samples;Min_cycle;Max_cycle;Signal;HPM_P1;HPM_P2
2023/03/04 00:00:20;;;;;;;66.03;42.47;;;;;;;4.95;97.94;99536.72;5114386;28;20490;-73
2023/03/04 00:02:45;;;;;;;72.38;43.95;;;;;;;4.95;97.48;99533.94;5114345;28;20110;-72
2023/03/04 00:05:11;;;;;;;71.25;45.28;;;;;;;4.81;97.25;99534.66;5115688;27;20024;-72
2023/03/04 00:07:36;;;;;;;73.40;45.03;;;;;;;4.57;97.90;99524.38;5112823;28;20019;-72
2023/03/04 00:10:02;;;;;;;81.15;47.38;;;;;;;4.26;100.00;99524.72;5113997;28;20031;-72
2023/03/04 00:12:28;;;;;;;78.00;46.38;;;;;;;4.18;100.00;99525.34;5114097;28;20025;-72
2023/03/04 00:14:53;;;;;;;83.93;49.95;;;;;;;4.22;100.00;99515.31;5117609;27;20016;-72
2023/03/04 00:17:19;;;;;;;77.05;47.40;;;;;;;4.28;100.00;99516.09;5112157;27;20047;-72
2023/03/04 00:19:44;;;;;;;83.10;49.03;;;;;;;4.57;100.00;99513.31;5092125;28;20019;-72
2023/03/04 00:22:10;;;;;;;74.28;47.15;;;;;;;4.75;99.73;99517.25;5092090;28;20453;-73
2023/03/04 00:24:35;;;;;;;70.43;44.83;;;;;;;4.86;99.10;99522.69;5092055;28;20077;-72
2023/03/04 00:27:01;;;;;;;78.78;48.25;;;;;;;4.67;98.38;99525.41;5121915;27;20030;-72
2023/03/04 00:29:26;;;;;;;81.82;47.65;;;;;;;4.81;99.03;99534.66;5134007;27;20047;-72
2023/03/04 00:31:52;;;;;;;77.40;48.00;;;;;;;4.94;97.55;99535.91;5118494;27;20028;-72
2023/03/04 00:34:17;;;;;;;75.57;46.45;;;;;;;4.80;97.61;99546.88;5113615;28;20038;-72
2023/03/04 00:36:43;;;;;;;68.10;43.35;;;;;;;4.60;99.22;99531.28;5125271;27;20023;-72
2023/03/04 00:39:11;;;;;;;72.82;44.22;;;;;;;4.33;99.65;99533.50;5126280;27;20440;-72
2023/03/04 00:41:36;;;;;;;72.68;44.60;;;;;;;4.27;100.00;99533.84;5112085;28;20123;-72
2023/03/04 00:44:02;;;;;;;68.40;42.92;;;;;;;4.19;100.00;99526.97;5113088;28;20050;-72
2023/03/04 00:46:27;;;;;;;70.18;42.28;;;;;;;4.31;100.00;99527.44;5110152;28;20016;-72
2023/03/04 00:48:52;;;;;;;71.60;46.25;;;;;;;4.33;100.00;99533.50;5113464;28;20102;-72
2023/03/04 00:51:18;;;;;;;74.50;45.53;;;;;;;4.55;100.00;99539.69;5122101;27;20027;-72
2023/03/04 00:53:43;;;;;;;73.05;44.25;;;;;;;4.61;100.00;99542.09;5133696;27;20474;-72
2023/03/04 00:56:09;;;;;;;72.68;43.63;;;;;;;4.65;99.65;99539.56;5118052;27;20016;-72
2023/03/04 00:58:34;;;;;;;68.70;43.25;;;;;;;4.74;99.56;99532.25;5113173;28;20024;-72
2023/03/04 01:01:00;;;;;;;66.10;40.67;;;;;;;4.84;98.54;99528.53;5111993;28;20034;-72
2023/03/04 01:03:25;;;;;;;69.97;41.50;;;;;;;4.84;97.90;99520.22;5118323;27;20513;-72
2023/03/04 01:05:51;;;;;;;78.45;46.88;;;;;;;4.81;97.81;99514.44;5121788;27;20032;-72
2023/03/04 01:08:16;;;;;;;81.32;48.20;;;;;;;4.83;97.02;99528.84;5113117;28;20107;-72
2023/03/04 01:10:42;;;;;;;84.97;49.03;;;;;;;4.88;97.11;99524.06;5111344;28;20517;-72
2023/03/04 01:13:07;;;;;;;87.28;50.72;;;;;;;5.03;96.81;99525.81;5113013;28;20047;-72
2023/03/04 01:15:33;;;;;;;86.03;47.90;;;;;;;5.09;96.71;99520.19;5121352;27;20543;-71
2023/03/04 01:17:58;;;;;;;74.20;44.53;;;;;;;4.92;97.40;99516.78;5112939;28;20106;-72
2023/03/04 01:20:24;;;;;;;71.72;42.50;;;;;;;4.91;98.20;99508.78;5110760;28;20031;-72
2023/03/04 01:22:49;;;;;;;72.32;45.25;;;;;;;5.01;98.12;99514.22;5111459;28;20023;-72
2023/03/04 01:25:15;;;;;;;75.28;43.30;;;;;;;5.08;98.08;99502.75;5111616;28;20422;-72
2023/03/04 01:27:40;;;;;;;69.93;44.55;;;;;;;5.09;96.83;99498.84;5121296;27;20019;-72
2023/03/04 01:30:06;;;;;;;67.00;43.55;;;;;;;5.10;96.90;99499.66;5126321;27;20481;-72
2023/03/04 01:32:32;;;;;;;77.13;45.53;;;;;;;5.01;96.41;99497.56;5111031;28;20027;-72
2023/03/04 01:34:57;;;;;;;73.75;44.97;;;;;;;5.08;96.14;99496.38;5132464;27;20026;-72
2023/03/04 01:37:22;;;;;;;79.00;45.63;;;;;;;4.97;96.42;99490.16;5127735;27;20042;-72
2023/03/04 01:39:48;;;;;;;78.35;48.00;;;;;;;4.85;96.71;99488.63;5122978;27;20026;-72
2023/03/04 01:42:19;;;;;;;99.95;53.90;;;;;;;4.88;97.27;99490.78;5128239;27;20031;-72
2023/03/04 01:44:47;;;;;;;112.53;54.40;;;;;;;4.88;96.68;99490.78;5112341;28;20054;-72
2023/03/04 01:47:13;;;;;;;94.00;52.17;;;;;;;4.80;97.69;99502.53;5111216;28;20031;-72
2023/03/04 01:49:39;;;;;;;90.70;51.40;;;;;;;4.75;98.50;99492.31;5110972;28;20055;-72
2023/03/04 01:52:05;;;;;;;83.15;49.03;;;;;;;4.87;98.28;99486.38;5123258;28;20479;-72
2023/03/04 01:54:30;;;;;;;87.40;50.35;;;;;;;4.94;97.87;99488.78;5120000;28;20067;-72
2023/03/04 01:56:59;;;;;;;89.13;49.88;;;;;;;4.99;97.58;99487.91;5114902;28;20024;-72
2023/03/04 01:59:28;;;;;;;95.03;51.78;;;;;;;5.09;97.54;99498.84;5116784;28;20042;-72
2023/03/04 02:01:57;;;;;;;89.95;52.55;;;;;;;5.05;97.20;99495.00;5115697;28;20065;-72
2023/03/04 02:04:30;;;;;;;90.13;50.25;;;;;;;5.12;97.03;99506.56;5126028;27;20028;-72
2023/03/04 02:06:57;;;;;;;83.20;48.40;;;;;;;5.18;96.94;99508.13;5116322;28;20029;-72
2023/03/04 02:09:22;;;;;;;87.90;50.95;;;;;;;5.18;96.34;99507.31;5115246;28;20114;-72
2023/03/04 02:11:50;;;;;;;89.43;49.50;;;;;;;5.22;96.26;99502.81;5118090;27;20051;-72
2023/03/04 02:14:16;;;;;;;88.03;51.17;;;;;;;5.27;96.15;99501.94;5115747;27;20028;-72
2023/03/04 02:16:42;;;;;;;87.65;51.08;;;;;;;5.31;96.71;99494.69;5116340;28;20012;-72
2023/03/04 02:19:56;;;;;;;80.22;48.63;;;;;;;5.40;96.25;99497.59;5113493;28;20051;-72
2023/03/04 02:22:22;;;;;;;81.70;49.13;;;;;;;5.19;97.38;99490.41;5101190;27;20399;-72
2023/03/04 02:25:02;;;;;;;83.43;48.20;;;;;;;5.23;97.81;99489.78;5108586;28;20032;-72
2023/03/04 02:27:27;;;;;;;77.75;46.58;;;;;;;5.27;97.57;99479.75;5095849;28;20028;-72
2023/03/04 02:29:53;;;;;;;79.43;47.72;;;;;;;5.27;97.32;99469.50;5095714;28;20024;-72
2023/03/04 02:32:18;;;;;;;75.82;46.88;;;;;;;5.32;97.52;99466.63;5106810;27;20059;-72
2023/03/04 02:34:50;;;;;;;75.13;44.95;;;;;;;5.31;97.45;99467.75;5115882;27;20102;-72
2023/03/04 02:37:18;;;;;;;78.22;47.58;;;;;;;5.03;98.57;99467.59;5116063;28;20459;-72
2023/03/04 02:39:46;;;;;;;75.72;46.22;;;;;;;4.97;98.72;99463.22;5115927;27;20094;-73
2023/03/04 02:42:12;;;;;;;73.05;45.63;;;;;;;5.10;99.59;99455.31;5114830;28;20102;-72
2023/03/04 02:44:40;;;;;;;79.47;47.40;;;;;;;5.14;98.73;99462.72;5115862;28;20026;-72
2023/03/04 02:47:09;;;;;;;84.72;49.80;;;;;;;5.15;99.03;99458.81;5124360;27;20031;-72
2023/03/04 02:49:36;;;;;;;71.68;45.53;;;;;;;5.24;98.30;99460.94;5134993;27;20019;-72
2023/03/04 02:52:04;;;;;;;76.75;46.55;;;;;;;5.14;98.00;99473.81;5119075;27;20015;-71
2023/03/04 02:54:30;;;;;;;80.35;47.65;;;;;;;5.25;97.89;99462.59;5114635;28;20051;-72
2023/03/04 02:56:59;;;;;;;75.03;47.00;;;;;;;5.31;97.46;99464.16;5114143;28;20023;-73
2023/03/04 02:59:24;;;;;;;81.75;47.35;;;;;;;5.31;96.85;99467.75;5116453;27;20123;-72
2023/03/04 03:01:50;;;;;;;70.88;44.45;;;;;;;5.36;96.86;99472.41;5115396;28;20102;-72
2023/03/04 03:04:16;;;;;;;82.10;48.80;;;;;;;5.38;95.96;99472.94;5114577;28;20496;-72
2023/03/04 03:06:42;;;;;;;79.97;45.78;;;;;;;5.41;95.48;99477.88;5114808;28;20111;-72
2023/03/04 03:09:07;;;;;;;78.18;44.80;;;;;;;5.32;94.79;99480.50;5114205;28;20106;-72
2023/03/04 03:11:34;;;;;;;81.88;48.08;;;;;;;5.32;95.56;99479.69;5127350;27;20496;-72
2023/03/04 03:14:00;;;;;;;76.97;47.92;;;;;;;5.29;94.94;99477.50;5118502;27;20561;-72
2023/03/04 03:16:26;;;;;;;76.82;45.92;;;;;;;5.27;95.31;99480.59;5115387;28;20028;-73
2023/03/04 03:18:51;;;;;;;79.95;49.33;;;;;;;5.23;95.08;99473.97;5114750;28;20046;-73
2023/03/04 03:21:17;;;;;;;82.60;51.38;;;;;;;5.12;95.14;99476.06;5125654;27;20052;-72
2023/03/04 03:23:42;;;;;;;87.88;49.45;;;;;;;4.95;95.88;99476.56;5120380;27;20518;-73
2023/03/04 03:26:08;;;;;;;75.40;46.95;;;;;;;4.93;96.26;99473.28;5100415;28;20032;-72
2023/03/04 03:28:34;;;;;;;78.28;47.10;;;;;;;4.95;95.83;99472.97;5107506;28;20080;-72
2023/03/04 03:31:00;;;;;;;83.82;50.42;;;;;;;4.63;97.85;99476.13;5124599;27;20032;-72
2023/03/04 03:33:25;;;;;;;82.90;47.00;;;;;;;4.66;98.08;99477.50;5118038;27;20080;-73
2023/03/04 03:35:51;;;;;;;86.32;52.50;;;;;;;4.78;97.96;99486.22;5114935;28;20521;-73
2023/03/04 03:38:16;;;;;;;89.40;50.70;;;;;;;4.38;98.88;99490.25;5113437;28;20061;-73
2023/03/04 03:40:42;;;;;;;71.57;44.50;;;;;;;4.01;99.97;99482.31;5114519;28;20447;-72
2023/03/04 03:43:08;;;;;;;79.50;50.53;;;;;;;3.85;100.00;99478.00;5111487;28;20032;-72
2023/03/04 03:45:33;;;;;;;87.20;50.53;;;;;;;3.99;100.00;99481.78;5121746;27;20035;-72
2023/03/04 03:47:58;;;;;;;76.45;47.25;;;;;;;3.71;100.00;99488.94;5114391;28;20494;-72
2023/03/04 03:50:24;;;;;;;82.13;48.35;;;;;;;3.62;100.00;99480.41;5130404;27;20410;-72
2023/03/04 03:52:49;;;;;;;78.35;46.40;;;;;;;3.76;100.00;99475.03;5126167;27;20031;-73
2023/03/04 03:55:15;;;;;;;74.97;46.72;;;;;;;3.60;100.00;99488.16;5112883;28;20143;-73
2023/03/04 03:57:41;;;;;;;75.35;44.90;;;;;;;3.55;100.00;99477.97;5122629;27;20097;-73
2023/03/04 04:00:08;;;;;;;74.18;43.50;;;;;;;3.51;100.00;99480.50;5114479;28;20544;-73
2023/03/04 04:02:34;;;;;;;75.20;43.05;;;;;;;3.49;100.00;99491.00;5110662;28;20031;-72
2023/03/04 04:04:59;;;;;;;72.57;43.95;;;;;;;3.56;100.00;99487.94;5114192;28;20027;-73
2023/03/04 04:07:25;;;;;;;66.65;41.85;;;;;;;3.43;100.00;99486.63;5114180;28;20052;-72
2023/03/04 04:09:50;;;;;;;69.45;43.33;;;;;;;3.42;100.00;99490.50;5130619;27;20498;-73
2023/03/04 04:12:17;;;;;;;70.07;42.22;;;;;;;3.45;100.00;99489.94;5113826;28;20055;-73
2023/03/04 04:14:42;;;;;;;63.13;41.15;;;;;;;3.56;100.00;99487.09;5096364;28;20038;-73
2023/03/04 04:17:08;;;;;;;64.75;40.08;;;;;;;3.28;100.00;99476.50;5094227;28;20103;-72
2023/03/04 04:19:34;;;;;;;67.45;40.67;;;;;;;3.41;100.00;99483.34;5112026;28;20019;-73
2023/03/04 04:22:00;;;;;;;70.05;40.35;;;;;;;3.52;100.00;99492.38;5111779;27;20489;-73
2023/03/04 04:24:26;;;;;;;60.45;36.95;;;;;;;3.60;99.82;99491.78;5112871;28;20035;-74
2023/03/04 04:26:51;;;;;;;64.20;38.60;;;;;;;3.59;99.15;99489.28;5129560;27;20067;-74
2023/03/04 04:29:17;;;;;;;63.55;39.70;;;;;;;3.57;98.28;99497.88;5134316;27;20102;-72
2023/03/04 04:31:43;;;;;;;58.47;36.95;;;;;;;3.67;98.07;99499.75;5133709;27;20454;-71
2023/03/04 04:34:08;;;;;;;59.22;37.60;;;;;;;3.63;97.85;99499.50;5096931;28;20427;-72
2023/03/04 04:36:34;;;;;;;65.38;39.17;;;;;;;3.64;98.08;99512.19;5102717;28;20020;-72
2023/03/04 04:38:59;;;;;;;57.58;36.85;;;;;;;3.77;97.22;99507.97;5113405;28;20460;-73
2023/03/04 04:41:33;;;;;;;56.70;36.88;;;;;;;3.75;95.88;99504.66;5112237;28;20054;-73
2023/03/04 04:43:59;;;;;;;63.17;39.95;;;;;;;3.82;95.77;99504.34;5107879;27;20481;-73
2023/03/04 04:46:25;;;;;;;66.97;38.63;;;;;;;3.91;95.62;99510.06;5133926;27;20076;-73
2023/03/04 04:48:50;;;;;;;60.85;36.92;;;;;;;3.89;95.14;99504.00;5133882;27;20027;-73
2023/03/04 04:51:16;;;;;;;63.47;38.60;;;;;;;3.93;94.78;99507.84;5119239;27;20038;-73
2023/03/04 04:53:42;;;;;;;62.42;37.92;;;;;;;3.81;94.75;99505.47;5111621;28;20043;-76
2023/03/04 04:56:16;;;;;;;66.53;40.40;;;;;;;3.84;95.46;99507.63;5115393;27;20023;-74
2023/03/04 04:58:42;;;;;;;65.43;40.63;;;;;;;3.87;95.32;99507.06;5129790;27;20035;-74
2023/03/04 05:01:08;;;;;;;77.38;44.55;;;;;;;3.95;95.18;99513.91;5111368;27;20027;-74
2023/03/04 05:03:35;;;;;;;67.90;41.15;;;;;;;4.01;95.56;99521.06;5102072;28;20468;-73
2023/03/04 05:06:01;;;;;;;67.53;40.20;;;;;;;3.95;95.78;99511.13;5092594;28;20028;-72
2023/03/04 05:08:27;;;;;;;62.85;37.58;;;;;;;3.88;95.86;99518.97;5109017;27;20023;-74
2023/03/04 05:10:52;;;;;;;75.53;43.30;;;;;;;3.60;95.23;99521.34;5126700;27;20055;-72
2023/03/04 05:13:18;;;;;;;64.43;39.42;;;;;;;3.80;95.53;99514.84;5110421;28;20027;-72
2023/03/04 05:15:44;;;;;;;66.72;40.58;;;;;;;3.86;94.40;99519.25;5113020;28;20027;-73
2023/03/04 05:18:10;;;;;;;89.78;53.30;;;;;;;3.85;93.89;99519.53;5113449;27;20501;-74
2023/03/04 05:20:36;;;;;;;81.88;49.17;;;;;;;3.51;95.07;99524.75;5114655;27;20051;-73
2023/03/04 05:23:02;;;;;;;70.40;44.00;;;;;;;3.37;96.49;99518.19;5110312;28;20034;-73
2023/03/04 05:25:28;;;;;;;66.43;40.97;;;;;;;3.53;96.55;99513.38;5109724;28;20038;-73
2023/03/04 05:27:53;;;;;;;60.45;38.22;;;;;;;3.47;96.76;99512.59;5112436;28;20474;-74
2023/03/04 05:30:19;;;;;;;64.10;38.58;;;;;;;3.43;97.27;99510.69;5114189;27;20034;-74
2023/03/04 05:32:44;;;;;;;63.47;38.22;;;;;;;3.51;96.93;99515.63;5129267;27;20019;-73
2023/03/04 05:35:10;;;;;;;60.92;35.35;;;;;;;3.48;96.10;99521.72;5109891;28;20031;-73
2023/03/04 05:37:35;;;;;;;54.15;35.63;;;;;;;3.48;96.60;99507.91;5124155;27;20094;-73
2023/03/04 05:40:01;;;;;;;66.22;36.10;;;;;;;3.65;95.80;99513.84;5130991;27;20047;-74
2023/03/04 05:42:26;;;;;;;60.65;36.50;;;;;;;3.78;95.69;99522.63;5119916;27;20027;-73
2023/03/04 05:44:52;;;;;;;67.55;42.58;;;;;;;3.87;94.71;99528.38;5111419;27;20089;-74
2023/03/04 05:47:17;;;;;;;66.07;43.40;;;;;;;3.94;94.67;99531.63;5109591;28;20035;-74
2023/03/04 05:49:43;;;;;;;66.47;38.10;;;;;;;3.95;94.67;99538.81;5111895;28;20031;-74
2023/03/04 05:52:09;;;;;;;64.53;39.10;;;;;;;3.89;93.91;99526.16;5111948;28;20023;-73
2023/03/04 05:54:35;;;;;;;62.22;40.20;;;;;;;3.78;93.73;99531.75;5112953;28;20038;-73
2023/03/04 05:57:01;;;;;;;72.65;41.45;;;;;;;3.78;94.85;99539.22;5121033;28;20414;-74
2023/03/04 05:59:27;;;;;;;72.55;43.28;;;;;;;3.89;94.18;99551.88;5110571;28;20028;-74
2023/03/04 06:01:52;;;;;;;60.35;40.13;;;;;;;3.85;93.44;99548.03;5111855;28;20038;-74
2023/03/04 06:04:18;;;;;;;68.10;41.50;;;;;;;3.85;94.62;99542.50;5112742;28;20054;-74
2023/03/04 06:06:45;;;;;;;64.43;39.55;;;;;;;3.78;94.84;99540.06;5114297;28;20523;-74
2023/03/04 06:09:11;;;;;;;65.68;37.92;;;;;;;3.62;96.38;99541.25;5111731;28;20405;-73
2023/03/04 06:11:36;;;;;;;61.55;36.90;;;;;;;3.65;96.77;99547.06;5110558;28;20054;-73
2023/03/04 06:14:02;;;;;;;67.90;37.28;;;;;;;3.82;96.65;99556.91;5109258;28;20059;-74
2023/03/04 06:16:27;;;;;;;56.38;34.88;;;;;;;3.91;96.19;99554.34;5108454;28;20106;-74
2023/03/04 06:18:53;;;;;;;65.10;36.47;;;;;;;3.61;96.77;99558.97;5110560;28;20092;-73
2023/03/04 06:21:18;;;;;;;65.55;37.50;;;;;;;3.36;98.22;99564.38;5112599;28;20433;-72
2023/03/04 06:23:44;;;;;;;59.53;35.47;;;;;;;3.32;99.79;99548.63;5110959;28;20049;-74
2023/03/04 06:26:14;;;;;;;67.72;35.85;;;;;;;3.42;99.54;99553.28;5109055;28;20039;-73
2023/03/04 06:28:43;;;;;;;59.40;33.85;;;;;;;3.57;100.00;99566.19;5108452;28;20031;-74
2023/03/04 06:31:08;;;;;;;72.53;39.70;;;;;;;3.74;99.55;99565.81;5109912;28;20473;-73
2023/03/04 06:33:34;;;;;;;59.25;36.58;;;;;;;3.79;98.60;99579.59;5109186;28;20120;-73
2023/03/04 06:35:59;;;;;;;64.32;37.63;;;;;;;3.90;97.73;99586.72;5104208;28;20085;-73
2023/03/04 06:38:25;;;;;;;68.53;39.17;;;;;;;3.85;97.89;99584.00;5106130;28;20035;-73
2023/03/04 06:40:51;;;;;;;62.90;35.70;;;;;;;3.79;98.57;99585.97;5100550;28;20035;-73
2023/03/04 06:43:17;;;;;;;74.43;40.20;;;;;;;3.71;98.42;99592.09;5113180;28;20034;-74
2023/03/04 06:45:43;;;;;;;75.57;40.72;;;;;;;3.54;99.20;99583.38;5112621;28;20133;-73
2023/03/04 06:48:09;;;;;;;75.13;42.63;;;;;;;3.43;99.89;99577.06;5109560;28;20032;-73
2023/03/04 06:50:34;;;;;;;78.95;43.40;;;;;;;3.35;100.00;99584.00;5111436;28;20462;-73
2023/03/04 06:53:03;;;;;;;79.75;43.58;;;;;;;3.34;100.00;99594.25;5114370;28;20130;-73
2023/03/04 06:55:28;;;;;;;73.53;39.20;;;;;;;3.40;100.00;99589.53;5109395;28;20481;-73
2023/03/04 06:57:54;;;;;;;84.18;43.47;;;;;;;3.58;100.00;99590.81;5110485;28;20094;-73
2023/03/04 07:00:19;;;;;;;85.22;43.40;;;;;;;3.63;100.00;99588.00;5113417;28;20031;-74
2023/03/04 07:02:45;;;;;;;86.07;43.83;;;;;;;3.68;100.00;99586.31;5113093;28;20470;-74
2023/03/04 07:05:11;;;;;;;113.95;52.33;;;;;;;3.94;100.00;99581.44;5108304;28;20031;-73
2023/03/04 07:07:37;;;;;;;88.88;44.22;;;;;;;3.80;100.00;99584.03;5105024;28;20049;-73
2023/03/04 07:10:05;;;;;;;96.80;45.95;;;;;;;3.54;100.00;99584.19;5105759;28;20038;-73
2023/03/04 07:12:31;;;;;;;98.72;47.65;;;;;;;3.51;100.00;99580.06;5103102;27;20537;-74
2023/03/04 07:14:57;;;;;;;88.60;45.35;;;;;;;3.62;100.00;99582.75;5106694;27;20030;-72
2023/03/04 07:17:22;;;;;;;91.28;46.00;;;;;;;3.78;100.00;99587.09;5108848;28;20470;-71
2023/03/04 07:19:48;;;;;;;96.63;47.60;;;;;;;3.90;100.00;99586.72;5105534;27;20073;-70
2023/03/04 07:22:13;;;;;;;94.85;46.42;;;;;;;3.78;100.00;99589.88;5108016;27;20423;-73
2023/03/04 07:24:39;;;;;;;97.32;50.20;;;;;;;3.81;100.00;99580.16;5107802;27;20023;-72
2023/03/04 07:27:04;;;;;;;108.68;51.17;;;;;;;3.85;100.00;99577.63;5105685;27;20478;-73
2023/03/04 07:29:29;;;;;;;111.50;55.20;;;;;;;3.79;100.00;99585.97;5108791;27;20055;-71
2023/03/04 07:31:55;;;;;;;109.45;57.47;;;;;;;3.84;100.00;99571.28;5120988;27;20031;-73
2023/03/04 07:34:20;;;;;;;109.90;52.72;;;;;;;3.81;100.00;99560.81;5109070;28;20019;-71
2023/03/04 07:36:46;;;;;;;123.43;57.35;;;;;;;3.72;100.00;99565.28;5108924;28;20027;-72
2023/03/04 07:39:12;;;;;;;113.80;56.05;;;;;;;3.83;100.00;99564.09;5108735;27;20023;-71
2023/03/04 07:41:39;;;;;;;110.53;54.60;;;;;;;3.85;100.00;99570.16;5106501;28;20027;-73
2023/03/04 07:44:06;;;;;;;159.35;77.10;;;;;;;4.01;100.00;99567.28;5107937;27;20066;-74
2023/03/04 07:46:32;;;;;;;404.65;204.57;;;;;;;3.96;100.00;99573.69;5123148;27;20123;-72
2023/03/04 07:48:57;;;;;;;410.60;228.85;;;;;;;4.11;100.00;99574.69;5106730;27;20028;-72
2023/03/04 07:51:25;;;;;;;186.52;95.45;;;;;;;4.05;100.00;99571.94;5107480;28;20084;-74
2023/03/04 07:53:55;;;;;;;156.68;74.25;;;;;;;4.09;100.00;99566.66;5108198;28;20035;-72
2023/03/04 07:56:25;;;;;;;182.83;83.63;;;;;;;4.28;100.00;99575.09;5106839;27;20024;-71
2023/03/04 07:58:52;;;;;;;148.27;69.55;;;;;;;4.25;100.00;99570.13;5106100;27;20457;-70
2023/03/04 08:01:24;;;;;;;171.60;85.28;;;;;;;4.41;100.00;99570.00;5112114;27;20119;-69
2023/03/04 08:03:49;;;;;;;204.30;127.75;;;;;;;4.55;100.00;99567.38;5104181;27;20401;-71
2023/03/04 08:06:16;;;;;;;139.45;75.55;;;;;;;4.67;100.00;99573.34;5104812;28;20027;-72
2023/03/04 08:08:42;;;;;;;140.13;66.10;;;;;;;4.86;100.00;99567.88;5109690;27;20035;-71
2023/03/04 08:11:11;;;;;;;134.55;67.50;;;;;;;4.98;100.00;99567.44;5109976;28;20044;-70
2023/03/04 08:13:37;;;;;;;120.60;61.20;;;;;;;5.04;100.00;99562.66;5106263;27;20129;-70
2023/03/04 08:16:03;;;;;;;117.40;58.90;;;;;;;5.20;100.00;99564.16;5105381;27;20062;-71
2023/03/04 08:18:29;;;;;;;146.82;81.15;;;;;;;5.40;100.00;99569.72;5108930;27;20185;-71
2023/03/04 08:20:54;;;;;;;110.25;57.78;;;;;;;5.45;99.90;99559.38;5108448;27;20529;-70
2023/03/04 08:23:20;;;;;;;114.93;61.38;;;;;;;5.59;99.02;99564.19;5108297;27;20111;-70
2023/03/04 08:25:46;;;;;;;106.32;58.65;;;;;;;5.61;97.09;99568.31;5103547;28;20462;-71
2023/03/04 08:28:12;;;;;;;106.75;57.88;;;;;;;5.67;96.46;99559.91;5104206;28;20032;-72
2023/03/04 08:30:39;;;;;;;111.20;59.53;;;;;;;5.75;96.53;99570.34;5102825;28;20042;-69
2023/03/04 08:33:05;;;;;;;129.55;60.75;;;;;;;5.59;97.82;99565.00;5099828;27;20023;-70
2023/03/04 08:35:31;;;;;;;107.63;59.70;;;;;;;5.57;98.66;99570.03;5119513;27;20027;-69
2023/03/04 08:37:56;;;;;;;107.38;62.08;;;;;;;5.64;99.02;99572.44;5108905;28;20032;-71
2023/03/04 08:40:23;;;;;;;117.03;64.28;;;;;;;5.71;98.29;99572.91;5106545;28;20486;-70
2023/03/04 08:42:49;;;;;;;126.95;73.22;;;;;;;5.87;97.58;99567.94;5103885;27;20027;-70
2023/03/04 08:45:14;;;;;;;168.15;109.82;;;;;;;5.86;98.16;99571.84;5101150;28;20040;-69
2023/03/04 08:47:40;;;;;;;121.22;68.55;;;;;;;6.12;97.92;99565.09;5104623;28;20042;-70
2023/03/04 08:50:06;;;;;;;114.15;64.40;;;;;;;5.96;97.25;99568.09;5100460;27;20448;-70
2023/03/04 08:52:32;;;;;;;115.65;63.00;;;;;;;5.43;99.29;99558.88;5102751;28;20067;-70
2023/03/04 08:54:58;;;;;;;107.15;58.78;;;;;;;5.56;100.00;99562.84;5105779;28;20102;-70
2023/03/04 08:57:23;;;;;;;112.75;59.67;;;;;;;5.85;100.00;99558.25;5102243;28;20033;-70
2023/03/04 08:59:49;;;;;;;146.02;80.28;;;;;;;5.57;99.34;99566.44;5101601;27;20042;-70
2023/03/04 09:02:14;;;;;;;117.68;65.80;;;;;;;5.51;100.00;99559.31;5102627;27;20167;-70
2023/03/04 09:04:40;;;;;;;115.28;62.50;;;;;;;5.60;100.00;99540.88;5098956;28;20023;-70
2023/03/04 09:07:06;;;;;;;108.75;59.42;;;;;;;5.73;100.00;99545.66;5095859;27;20414;-70
2023/03/04 09:09:32;;;;;;;112.80;59.70;;;;;;;5.86;100.00;99541.31;5099958;28;20027;-70
2023/03/04 09:11:57;;;;;;;114.10;60.17;;;;;;;5.77;100.00;99545.88;5103093;28;20149;-70
2023/03/04 09:14:22;;;;;;;104.20;57.33;;;;;;;6.01;99.61;99545.81;5100546;27;20035;-70
2023/03/04 09:16:48;;;;;;;102.20;53.67;;;;;;;6.23;99.63;99541.56;5103501;28;20031;-70
2023/03/04 09:19:13;;;;;;;97.93;55.38;;;;;;;6.08;98.67;99542.63;5102180;27;20034;-70
2023/03/04 09:21:39;;;;;;;103.22;57.05;;;;;;;6.04;98.10;99545.22;5105958;28;20034;-70
2023/03/04 09:24:05;;;;;;;100.18;55.22;;;;;;;5.93;99.89;99546.47;5109110;27;20111;-69
2023/03/04 09:26:31;;;;;;;104.18;57.08;;;;;;;6.25;99.50;99546.81;5104740;28;20024;-69
2023/03/04 09:28:59;;;;;;;94.72;54.78;;;;;;;6.54;98.63;99529.06;5103674;28;20058;-70
2023/03/04 09:31:25;;;;;;;107.40;58.03;;;;;;;6.41;97.51;99531.53;5103645;28;20035;-69
2023/03/04 09:33:52;;;;;;;99.30;54.47;;;;;;;6.34;98.09;99541.38;5103958;27;20039;-70
2023/03/04 09:36:18;;;;;;;101.43;57.22;;;;;;;6.35;98.47;99534.69;5105185;27;20108;-70
2023/03/04 09:38:44;;;;;;;100.03;58.10;;;;;;;6.41;98.13;99541.84;5108695;27;20561;-70
2023/03/04 09:41:17;;;;;;;104.85;58.53;;;;;;;6.50;97.67;99531.63;5098766;28;20027;-70
2023/03/04 09:43:44;;;;;;;99.43;58.33;;;;;;;6.49;96.89;99543.06;5103454;28;20031;-70
2023/03/04 09:46:13;;;;;;;106.93;58.72;;;;;;;6.41;98.24;99541.84;5103735;28;20023;-69
2023/03/04 09:48:51;;;;;;;106.63;55.42;;;;;;;6.19;98.16;99537.75;5101970;28;20023;-70
2023/03/04 09:51:39;;;;;;;95.90;55.03;;;;;;;6.38;100.00;99537.69;5094703;28;20048;-69
2023/03/04 09:54:14;;;;;;;106.25;58.00;;;;;;;6.56;97.88;99524.03;5100990;28;20413;-70
2023/03/04 09:56:40;;;;;;;84.20;48.47;;;;;;;6.32;97.17;99525.00;5096007;28;20064;-70
2023/03/04 09:59:34;;;;;;;95.10;55.25;;;;;;;6.51;97.22;99524.13;5100401;28;20027;-70
2023/03/04 10:02:12;;;;;;;87.80;50.70;;;;;;;6.39;96.54;99524.63;5104899;27;20485;-69
2023/03/04 10:04:45;;;;;;;80.82;48.03;;;;;;;6.36;95.90;99528.84;5103901;28;20031;-69
2023/03/04 10:07:22;;;;;;;99.93;57.25;;;;;;;6.58;98.47;99522.59;5106250;28;20520;-68
2023/03/04 10:10:02;;;;;;;90.35;52.00;;;;;;;6.50;97.14;99516.94;5105829;28;20059;-69
2023/03/04 10:12:31;;;;;;;100.30;53.65;;;;;;;6.50;98.61;99516.94;5102401;28;20109;-70
2023/03/04 10:15:03;;;;;;;92.93;53.55;;;;;;;6.68;98.09;99518.78;5103535;28;20409;-70
2023/03/04 10:17:39;;;;;;;79.30;47.13;;;;;;;6.82;96.77;99504.91;5105331;27;20031;-70
2023/03/04 10:20:17;;;;;;;79.72;48.65;;;;;;;6.70;96.02;99504.59;5106783;27;20016;-69
2023/03/04 10:22:44;;;;;;;88.00;49.00;;;;;;;6.97;96.59;99501.00;5108437;27;20051;-69
2023/03/04 10:25:21;;;;;;;87.22;50.40;;;;;;;7.00;95.08;99496.78;5108657;28;20166;-69
2023/03/04 10:27:54;;;;;;;91.63;53.20;;;;;;;6.83;96.70;99495.44;5105763;27;20023;-70
2023/03/04 10:30:50;;;;;;;93.63;49.53;;;;;;;7.12;96.88;99493.44;5111534;28;20027;-69
2023/03/04 10:33:21;;;;;;;80.05;46.53;;;;;;;7.21;94.85;99490.75;5109930;28;20024;-70
2023/03/04 10:36:21;;;;;;;81.93;47.95;;;;;;;7.39;93.81;99483.41;5107743;27;20498;-69
2023/03/04 10:38:48;;;;;;;83.32;47.08;;;;;;;7.31;93.24;99476.63;5108925;27;20019;-69
2023/03/04 10:41:21;;;;;;;78.75;46.85;;;;;;;7.65;92.98;99468.88;5105423;27;20039;-69
2023/03/04 10:44:08;;;;;;;79.30;46.55;;;;;;;7.59;93.23;99469.00;5110609;28;20069;-69
2023/03/04 10:46:38;;;;;;;417.30;196.27;;;;;;;7.89;91.15;99462.16;5104413;28;20502;-69
2023/03/04 10:49:04;;;;;;;193.70;92.03;;;;;;;8.18;90.46;99466.47;5108889;27;20035;-69
2023/03/04 10:51:30;;;;;;;102.95;51.20;;;;;;;8.18;88.78;99456.13;5105723;27;20027;-69
2023/03/04 10:54:19;;;;;;;114.03;58.42;;;;;;;8.34;89.43;99452.94;5108316;27;20027;-69
2023/03/04 10:57:02;;;;;;;74.07;42.33;;;;;;;8.01;87.98;99449.31;5107134;28;20028;-69
2023/03/04 10:59:27;;;;;;;81.47;45.97;;;;;;;8.47;87.63;99449.22;5110124;27;20494;-69
2023/03/04 11:01:53;;;;;;;71.47;43.03;;;;;;;7.73;87.41;99440.28;5109211;27;20027;-69
2023/03/04 11:04:26;;;;;;;69.05;39.65;;;;;;;7.81;87.79;99435.91;5118128;27;20134;-69
2023/03/04 11:06:52;;;;;;;51.42;32.92;;;;;;;8.12;85.79;99435.94;5108361;27;20024;-69
2023/03/04 11:09:38;;;;;;;57.72;34.90;;;;;;;8.16;85.94;99422.19;5105067;27;20516;-69
2023/03/04 11:12:12;;;;;;;64.13;37.25;;;;;;;7.83;88.21;99408.56;5107477;27;20043;-69
2023/03/04 11:14:45;;;;;;;57.40;32.95;;;;;;;7.55;87.73;99417.91;5103362;28;20114;-69
2023/03/04 11:17:42;;;;;;;34.20;21.70;;;;;;;7.78;83.66;99409.50;5104639;28;20526;-69
2023/03/04 11:20:20;;;;;;;45.53;27.83;;;;;;;8.13;84.66;99409.72;5107178;27;20032;-69
2023/03/04 11:22:46;;;;;;;43.70;24.58;;;;;;;8.04;84.52;99391.31;5109219;28;20019;-69